Decoded Metar for KALW (WALLA WALLA in WA, USA) (IATA:ALW) | Meteo·Mobile Aviation Weather
aviador You're here:

KALW Decoded Metar

WALLA WALLA in WA, USA
Report Time2018-12-14 16:53:00
UTC Time2018-12-14 17:45:24
Flight Rules vfr VFR
Wind120° at 18 Gusting to 29 kt
W.Decomp.*RWY 07: 15.6 kt HW 9.0 kt RCW
RWY 16: 9.0 kt HW 15.6 kt LCW
RWY 02: 3.1 kt HW 17.7 kt RCW
W.Rank120° ranks 15
Current wind is above 120° avg. (5.1)
Visibility9999 m
Phenomena:N/A
Clouds:N/A
Expected CloudBase > 8,400 ft AGL from Temp-Dew spread
CeilingNone
Temp14°C (ISA +1)
Dew Point-7°C (23% RH)
AAT4.7°C
QNH1010 hPa
Density Alt1,509 ft
Elevation1,191 ft
Report Wrong Elevation
Raw Report
KALW 141653Z 12018G29KT 10SM CLR 14/M07 A2982 RMK AO2 PK WND
16030/1616 SLP100 T01391067=

Extra information for KALW:More info

Metar Taf Metar & Taf Last 4 Metars F.Rules Stats Wind Profile Meteogram Temp Stats Airport Information Weather charts Add Link Nearby VenuesMetar ALERT Operation Metar Decoded Social comments

AIRNAV info for KALW